createdAt,value
2022-12-31T00:01:10.338Z,5.72
2022-12-31T00:03:37.383Z,5.76
2022-12-31T00:06:17.515Z,5.75
2022-12-31T00:08:44.972Z,5.77
2022-12-31T00:11:11.415Z,5.79
2022-12-31T00:13:38.535Z,5.83
2022-12-31T00:16:12.205Z,5.83
2022-12-31T00:18:39.435Z,5.82
2022-12-31T00:21:09.636Z,5.88
2022-12-31T00:23:36.337Z,5.91
2022-12-31T00:26:03.685Z,5.90
2022-12-31T00:28:30.160Z,5.96
2022-12-31T00:30:56.620Z,6.01
2022-12-31T00:33:23.074Z,5.96
2022-12-31T00:35:49.463Z,5.99
2022-12-31T00:38:16.328Z,5.99
2022-12-31T00:40:42.724Z,5.87
2022-12-31T00:43:09.174Z,5.88
2022-12-31T00:45:35.636Z,5.95
2022-12-31T00:48:02.187Z,6.02
2022-12-31T00:50:28.622Z,6.10
2022-12-31T00:52:55.038Z,6.13
2022-12-31T00:55:21.990Z,6.20
2022-12-31T00:57:48.388Z,6.27
2022-12-31T01:00:15.335Z,6.22
2022-12-31T01:02:41.933Z,6.14
2022-12-31T01:05:08.686Z,6.07
2022-12-31T01:07:37.128Z,6.04
2022-12-31T01:10:03.797Z,5.93
2022-12-31T01:12:30.255Z,5.94
2022-12-31T01:14:56.693Z,5.93
2022-12-31T01:17:23.121Z,5.93
2022-12-31T01:19:49.599Z,5.91
2022-12-31T01:22:16.106Z,5.88
2022-12-31T01:24:42.546Z,5.87
2022-12-31T01:27:09.005Z,5.82
2022-12-31T01:29:35.448Z,5.83
2022-12-31T01:32:01.880Z,5.84
2022-12-31T01:34:28.325Z,5.96
2022-12-31T01:36:54.752Z,6.06
2022-12-31T01:39:21.382Z,6.10
2022-12-31T01:41:47.911Z,6.05
2022-12-31T01:44:23.482Z,5.97
2022-12-31T01:46:53.697Z,5.93
2022-12-31T01:49:29.972Z,5.95
2022-12-31T01:52:16.743Z,5.93
2022-12-31T01:54:45.234Z,5.99
2022-12-31T01:57:12.828Z,5.96
2022-12-31T01:59:39.240Z,5.95
2022-12-31T02:02:06.035Z,5.91
2022-12-31T02:04:32.563Z,5.89
2022-12-31T02:07:07.180Z,5.91
2022-12-31T02:09:35.747Z,5.91
2022-12-31T02:12:02.173Z,5.93
2022-12-31T02:14:33.830Z,5.94
2022-12-31T02:17:09.357Z,5.91
2022-12-31T02:19:35.802Z,5.96
2022-12-31T02:22:20.939Z,6.00
2022-12-31T02:25:06.428Z,6.02
2022-12-31T02:27:35.599Z,6.05
2022-12-31T02:30:01.999Z,6.07
2022-12-31T02:32:48.787Z,6.07
2022-12-31T02:35:19.459Z,6.10
2022-12-31T02:37:47.865Z,6.11
2022-12-31T02:40:17.398Z,6.12
2022-12-31T02:42:43.786Z,6.16
2022-12-31T02:45:14.005Z,6.15
2022-12-31T02:47:59.294Z,6.15
2022-12-31T02:50:30.736Z,6.17
2022-12-31T02:53:00.151Z,6.23
2022-12-31T02:55:35.543Z,6.24
2022-12-31T02:58:01.919Z,6.20
2022-12-31T03:00:50.002Z,6.19
2022-12-31T03:03:17.118Z,6.18
2022-12-31T03:05:44.684Z,6.19
2022-12-31T03:08:11.134Z,6.18
2022-12-31T03:10:37.562Z,6.22
2022-12-31T03:13:03.949Z,6.21
2022-12-31T03:15:33.422Z,6.21
2022-12-31T03:18:05.991Z,6.21
2022-12-31T03:21:01.954Z,6.21
2022-12-31T03:23:28.358Z,6.26
2022-12-31T03:25:56.435Z,6.22
2022-12-31T03:28:24.465Z,6.28
2022-12-31T03:30:52.671Z,6.23
2022-12-31T03:33:19.269Z,6.22
2022-12-31T03:35:46.355Z,6.23
2022-12-31T03:38:12.835Z,6.23
2022-12-31T03:40:40.454Z,6.22
2022-12-31T03:43:07.345Z,6.20
2022-12-31T03:45:34.657Z,6.19
2022-12-31T03:48:01.996Z,6.19
2022-12-31T03:50:28.822Z,6.22
2022-12-31T03:52:55.199Z,6.21
2022-12-31T03:55:21.657Z,6.18
2022-12-31T03:57:48.095Z,6.21
2022-12-31T04:00:17.020Z,6.23
2022-12-31T04:02:43.653Z,6.28
2022-12-31T04:05:10.576Z,6.27
2022-12-31T04:07:37.243Z,6.30
2022-12-31T04:10:04.752Z,6.23
2022-12-31T04:12:31.426Z,6.17
2022-12-31T04:14:58.013Z,6.25
2022-12-31T04:17:24.758Z,6.23
2022-12-31T04:19:51.248Z,6.22
2022-12-31T04:22:17.980Z,6.18
2022-12-31T04:24:44.877Z,6.17
2022-12-31T04:27:11.894Z,6.18
2022-12-31T04:29:38.723Z,6.17
2022-12-31T04:32:06.020Z,6.10
2022-12-31T04:34:32.574Z,6.12
2022-12-31T04:36:59.008Z,6.16
2022-12-31T04:39:25.463Z,6.16
2022-12-31T04:41:52.330Z,6.15
2022-12-31T04:44:19.243Z,6.19
2022-12-31T04:46:45.993Z,6.20
2022-12-31T04:49:12.591Z,6.19
2022-12-31T04:51:39.537Z,6.19
2022-12-31T04:54:06.066Z,6.20
2022-12-31T04:56:32.951Z,6.22
2022-12-31T04:58:59.402Z,6.24
2022-12-31T05:01:26.086Z,6.31
2022-12-31T05:03:52.633Z,6.35
2022-12-31T05:06:20.060Z,6.35
2022-12-31T05:08:46.947Z,6.42
2022-12-31T05:11:13.428Z,6.39
2022-12-31T05:13:39.941Z,6.37
2022-12-31T05:16:07.154Z,6.36
2022-12-31T05:18:34.052Z,6.36
2022-12-31T05:21:00.544Z,6.39
2022-12-31T05:23:27.001Z,6.39
2022-12-31T05:25:53.622Z,6.35
2022-12-31T05:28:20.356Z,6.38
2022-12-31T05:30:50.600Z,6.37
2022-12-31T05:33:17.530Z,6.42
2022-12-31T05:35:44.018Z,6.40
2022-12-31T05:38:11.296Z,6.37
2022-12-31T05:40:37.710Z,6.37
2022-12-31T05:43:04.103Z,6.39
2022-12-31T05:45:31.344Z,6.36
2022-12-31T05:47:58.034Z,6.38
2022-12-31T05:50:24.739Z,6.32
2022-12-31T05:52:51.181Z,6.40
2022-12-31T05:55:17.772Z,6.41
2022-12-31T05:57:44.189Z,6.46
2022-12-31T06:00:10.966Z,6.46
2022-12-31T06:02:37.501Z,6.51
2022-12-31T06:05:04.396Z,6.53
2022-12-31T06:07:30.940Z,6.50
2022-12-31T06:09:57.371Z,6.54
2022-12-31T06:12:23.755Z,6.54
2022-12-31T06:14:50.299Z,6.48
2022-12-31T06:17:16.805Z,6.48
2022-12-31T06:19:43.240Z,6.45
2022-12-31T06:22:09.694Z,6.41
2022-12-31T06:24:36.103Z,6.44
2022-12-31T06:27:02.583Z,6.46
2022-12-31T06:29:28.989Z,6.50
2022-12-31T06:31:55.360Z,6.51
2022-12-31T06:34:21.743Z,6.50
2022-12-31T06:36:48.202Z,6.55
2022-12-31T06:39:14.752Z,6.57
2022-12-31T06:41:41.284Z,6.59
2022-12-31T06:44:07.736Z,6.59
2022-12-31T06:46:34.201Z,6.56
2022-12-31T06:49:00.650Z,6.60
2022-12-31T06:51:27.212Z,6.58
2022-12-31T06:53:53.701Z,6.54
2022-12-31T06:56:21.665Z,6.50
2022-12-31T06:58:48.762Z,6.50
2022-12-31T07:01:36.329Z,6.51
2022-12-31T07:04:05.978Z,6.51
2022-12-31T07:06:44.214Z,6.48
2022-12-31T07:09:23.648Z,6.47
2022-12-31T07:11:49.995Z,6.45
2022-12-31T07:14:23.813Z,6.50
2022-12-31T07:16:55.160Z,6.45
2022-12-31T07:19:38.965Z,6.52
2022-12-31T07:22:05.485Z,6.49
2022-12-31T07:24:31.960Z,6.51
2022-12-31T07:26:58.369Z,6.51
2022-12-31T07:29:30.582Z,6.47
2022-12-31T07:32:06.203Z,6.51
2022-12-31T07:34:38.561Z,6.53
2022-12-31T07:37:11.916Z,6.59
2022-12-31T07:39:41.142Z,6.57
2022-12-31T07:42:20.797Z,6.58
2022-12-31T07:45:03.133Z,6.63
2022-12-31T07:47:30.071Z,6.57
2022-12-31T07:49:57.397Z,6.56
2022-12-31T07:52:24.071Z,6.56
2022-12-31T07:54:50.536Z,6.61
2022-12-31T07:57:18.342Z,6.59
2022-12-31T07:59:47.839Z,6.58
2022-12-31T08:02:32.628Z,6.56
2022-12-31T08:05:08.384Z,6.58
2022-12-31T08:07:34.859Z,6.53
2022-12-31T08:10:17.316Z,6.51
2022-12-31T08:12:45.944Z,6.47
2022-12-31T08:15:13.575Z,6.49
2022-12-31T08:17:40.175Z,6.54
2022-12-31T08:20:06.936Z,6.58
2022-12-31T08:22:52.094Z,6.59
2022-12-31T08:25:18.542Z,6.53
2022-12-31T08:27:51.170Z,6.56
2022-12-31T08:30:21.614Z,6.58
2022-12-31T08:32:51.014Z,6.60
2022-12-31T08:35:20.557Z,6.62
2022-12-31T08:37:47.006Z,6.60
2022-12-31T08:40:26.410Z,6.58
2022-12-31T08:43:07.288Z,6.66
2022-12-31T08:45:39.232Z,6.73
2022-12-31T08:48:18.767Z,6.75
2022-12-31T08:50:45.430Z,6.79
2022-12-31T08:53:12.034Z,6.79
2022-12-31T08:55:38.700Z,6.81
2022-12-31T08:58:23.663Z,6.82
2022-12-31T09:00:53.405Z,6.83
2022-12-31T09:03:38.751Z,6.87
2022-12-31T09:06:08.952Z,6.84
2022-12-31T09:08:51.347Z,6.80
2022-12-31T09:11:43.503Z,6.87
2022-12-31T09:14:15.665Z,6.89
2022-12-31T09:16:53.997Z,6.88
2022-12-31T09:19:20.590Z,6.93
2022-12-31T09:21:47.299Z,6.92
2022-12-31T09:24:15.030Z,6.89
2022-12-31T09:26:50.656Z,6.88
2022-12-31T09:29:27.477Z,6.89
2022-12-31T09:31:58.051Z,6.86
2022-12-31T09:34:35.902Z,6.85
2022-12-31T09:37:24.058Z,6.89
2022-12-31T09:39:51.178Z,6.92
2022-12-31T09:42:23.012Z,6.89
2022-12-31T09:45:08.478Z,6.87
2022-12-31T09:47:53.960Z,6.86
2022-12-31T09:50:39.254Z,6.84
2022-12-31T09:53:26.064Z,6.89
2022-12-31T09:55:55.594Z,6.93
2022-12-31T09:58:35.043Z,7.02
2022-12-31T10:01:08.352Z,7.03
2022-12-31T10:03:39.792Z,7.09
2022-12-31T10:06:17.292Z,7.12
2022-12-31T10:09:02.458Z,7.07
2022-12-31T10:11:29.049Z,7.01
2022-12-31T10:14:18.915Z,7.05
2022-12-31T10:16:48.892Z,7.04
2022-12-31T10:19:24.613Z,7.05
2022-12-31T10:22:09.828Z,7.02
2022-12-31T10:24:39.068Z,6.97
2022-12-31T10:27:25.561Z,7.00
2022-12-31T10:30:02.124Z,7.04
2022-12-31T10:32:51.886Z,7.01
2022-12-31T10:35:37.317Z,7.05
2022-12-31T10:38:16.367Z,7.13
2022-12-31T10:40:45.949Z,7.13
2022-12-31T10:43:27.975Z,7.19
2022-12-31T10:46:05.248Z,7.24
2022-12-31T10:48:50.444Z,7.28
2022-12-31T10:51:19.522Z,7.34
2022-12-31T10:53:45.959Z,7.36
2022-12-31T10:56:15.389Z,7.32
2022-12-31T10:59:01.746Z,7.37
2022-12-31T11:01:33.253Z,7.40
2022-12-31T11:04:08.665Z,7.48
2022-12-31T11:06:41.407Z,7.48
2022-12-31T11:09:16.899Z,7.50
2022-12-31T11:12:02.499Z,7.42
2022-12-31T11:14:31.916Z,7.43
2022-12-31T11:17:01.535Z,7.46
2022-12-31T11:19:46.159Z,7.48
2022-12-31T11:22:25.059Z,7.50
2022-12-31T11:25:10.386Z,7.58
2022-12-31T11:27:58.483Z,7.57
2022-12-31T11:30:45.936Z,7.64
2022-12-31T11:33:28.649Z,7.75
2022-12-31T11:36:14.210Z,7.80
2022-12-31T11:38:50.951Z,7.82
2022-12-31T11:41:43.753Z,7.86
2022-12-31T11:44:19.681Z,7.99
2022-12-31T11:47:04.484Z,8.07
2022-12-31T11:49:30.931Z,8.12
2022-12-31T11:52:21.198Z,8.13
2022-12-31T11:54:51.353Z,8.18
2022-12-31T11:57:24.422Z,8.17
2022-12-31T11:59:54.527Z,8.22
2022-12-31T12:02:25.201Z,8.28
2022-12-31T12:04:52.681Z,8.30
2022-12-31T12:07:19.729Z,8.31
2022-12-31T12:09:46.204Z,8.31
2022-12-31T12:12:13.337Z,8.27
2022-12-31T12:14:41.193Z,8.31
2022-12-31T12:17:09.489Z,8.32
2022-12-31T12:19:41.629Z,8.30
2022-12-31T12:22:12.777Z,8.38
2022-12-31T12:24:39.483Z,8.34
2022-12-31T12:27:20.330Z,8.38
2022-12-31T12:29:47.512Z,8.30
2022-12-31T12:32:17.469Z,8.30
2022-12-31T12:34:49.379Z,8.27
2022-12-31T12:37:35.461Z,8.31
2022-12-31T12:40:02.255Z,8.30
2022-12-31T12:42:28.888Z,8.32
2022-12-31T12:45:07.053Z,8.27
2022-12-31T12:47:33.765Z,8.33
2022-12-31T12:50:00.448Z,8.37
2022-12-31T12:52:37.255Z,8.36
2022-12-31T12:55:03.715Z,8.35
2022-12-31T12:57:33.242Z,8.34
2022-12-31T13:00:18.530Z,8.33
2022-12-31T13:03:03.622Z,8.37
2022-12-31T13:05:49.009Z,8.30
2022-12-31T13:08:21.671Z,8.35
2022-12-31T13:11:07.229Z,8.37
2022-12-31T13:13:46.234Z,8.38
2022-12-31T13:16:22.592Z,8.39
2022-12-31T13:18:54.938Z,8.36
2022-12-31T13:21:44.503Z,8.37
2022-12-31T13:24:33.625Z,8.29
2022-12-31T13:27:15.295Z,8.24
2022-12-31T13:29:42.614Z,8.25
2022-12-31T13:32:12.679Z,8.29
2022-12-31T13:34:41.695Z,8.24
2022-12-31T13:37:22.451Z,8.27
2022-12-31T13:39:52.070Z,8.24
2022-12-31T13:42:23.334Z,8.27
2022-12-31T13:44:51.890Z,8.26
2022-12-31T13:47:21.365Z,8.31
2022-12-31T13:50:20.335Z,8.42
2022-12-31T13:52:51.523Z,8.47
2022-12-31T13:55:27.843Z,8.56
2022-12-31T13:57:57.977Z,8.51
2022-12-31T14:00:26.826Z,8.49
2022-12-31T14:03:00.627Z,8.48
2022-12-31T14:05:39.403Z,8.48
2022-12-31T14:08:06.568Z,8.49
2022-12-31T14:10:55.979Z,8.48
2022-12-31T14:13:41.275Z,8.51
2022-12-31T14:16:34.269Z,8.53
2022-12-31T14:19:00.763Z,8.54
2022-12-31T14:21:31.353Z,8.52
2022-12-31T14:24:09.764Z,8.45
2022-12-31T14:26:40.701Z,8.50
2022-12-31T14:29:07.349Z,8.54
2022-12-31T14:31:49.340Z,8.54
2022-12-31T14:34:17.097Z,8.56
2022-12-31T14:37:02.512Z,8.49
2022-12-31T14:39:34.479Z,8.50
2022-12-31T14:42:03.967Z,8.50
2022-12-31T14:44:36.528Z,8.52
2022-12-31T14:47:27.352Z,8.49
2022-12-31T14:50:00.150Z,8.47
2022-12-31T14:52:32.865Z,8.42
2022-12-31T14:55:17.740Z,8.39
2022-12-31T15:00:40.686Z,8.31
2022-12-31T15:03:13.515Z,8.29
2022-12-31T15:05:55.172Z,8.24
2022-12-31T15:08:30.619Z,8.19
2022-12-31T15:11:04.796Z,8.19
2022-12-31T15:13:51.533Z,8.11
2022-12-31T15:16:35.598Z,8.08
2022-12-31T15:19:17.454Z,8.04
2022-12-31T15:21:58.397Z,8.03
2022-12-31T15:24:28.467Z,8.01
2022-12-31T15:26:56.692Z,7.99
2022-12-31T15:29:29.393Z,8.01
2022-12-31T15:31:56.615Z,8.03
2022-12-31T15:34:32.606Z,8.06
2022-12-31T15:37:00.554Z,8.03
2022-12-31T15:39:42.563Z,8.01
2022-12-31T15:42:40.636Z,8.01
2022-12-31T15:45:14.657Z,8.01
2022-12-31T15:47:43.157Z,8.06
2022-12-31T15:50:15.421Z,8.05
2022-12-31T15:52:43.280Z,8.06
2022-12-31T15:55:19.981Z,8.11
2022-12-31T15:57:46.885Z,8.09
2022-12-31T16:00:17.078Z,8.09
2022-12-31T16:02:44.545Z,8.08
2022-12-31T16:05:22.233Z,8.08
2022-12-31T16:08:00.100Z,8.07
2022-12-31T16:10:31.925Z,8.08
2022-12-31T16:12:59.600Z,8.08
2022-12-31T16:15:28.436Z,8.09
2022-12-31T16:18:02.996Z,8.11
2022-12-31T16:20:31.148Z,8.15
2022-12-31T16:22:58.685Z,8.13
2022-12-31T16:25:33.378Z,8.18
2022-12-31T16:28:04.373Z,8.15
2022-12-31T16:30:32.492Z,8.13
2022-12-31T16:33:00.509Z,8.11
2022-12-31T16:35:29.646Z,8.09
2022-12-31T16:38:02.842Z,8.09
2022-12-31T16:40:31.141Z,8.07
2022-12-31T16:42:58.371Z,8.03
2022-12-31T16:45:30.520Z,8.03
2022-12-31T16:47:58.877Z,8.01
2022-12-31T16:50:28.836Z,8.00
2022-12-31T16:53:02.800Z,8.05
2022-12-31T16:55:30.571Z,8.00
2022-12-31T16:58:17.301Z,8.00
2022-12-31T17:00:43.869Z,8.00
2022-12-31T17:03:19.604Z,7.98
2022-12-31T17:06:04.844Z,7.96
2022-12-31T17:08:49.791Z,7.97
2022-12-31T17:11:23.326Z,7.99
2022-12-31T17:13:54.821Z,8.00
2022-12-31T17:16:23.897Z,7.99
2022-12-31T17:18:50.930Z,8.01
2022-12-31T17:21:17.535Z,8.03
2022-12-31T17:23:50.084Z,8.02
2022-12-31T17:26:22.326Z,8.05
2022-12-31T17:28:50.809Z,8.05
2022-12-31T17:31:28.552Z,8.06
2022-12-31T17:34:04.160Z,8.06
2022-12-31T17:36:30.646Z,8.08
2022-12-31T17:39:12.841Z,8.08
2022-12-31T17:41:39.262Z,8.06
2022-12-31T17:44:07.101Z,8.08
2022-12-31T17:46:38.663Z,8.04
2022-12-31T17:49:05.269Z,8.09
2022-12-31T17:51:31.740Z,8.09
2022-12-31T17:53:59.883Z,8.07
2022-12-31T17:56:26.537Z,8.03
2022-12-31T17:58:53.867Z,8.09
2022-12-31T18:01:21.941Z,8.11
2022-12-31T18:03:48.918Z,8.10
2022-12-31T18:06:17.088Z,8.07
2022-12-31T18:08:43.857Z,8.05
2022-12-31T18:11:23.608Z,8.02
2022-12-31T18:13:50.490Z,7.98
2022-12-31T18:16:17.271Z,7.95
2022-12-31T18:18:45.376Z,7.91
2022-12-31T18:21:22.303Z,7.88
2022-12-31T18:23:49.073Z,7.91
2022-12-31T18:26:16.821Z,7.86
2022-12-31T18:28:43.748Z,7.86
2022-12-31T18:31:21.928Z,7.88
2022-12-31T18:33:49.578Z,7.87
2022-12-31T18:36:17.591Z,7.86
2022-12-31T18:38:44.352Z,7.83
2022-12-31T18:41:16.923Z,7.84
2022-12-31T18:43:43.459Z,7.80
2022-12-31T18:46:12.479Z,7.86
2022-12-31T18:48:41.492Z,7.76
2022-12-31T18:51:13.187Z,7.66
2022-12-31T18:53:39.684Z,7.65
2022-12-31T18:56:06.707Z,7.61
2022-12-31T18:58:34.264Z,7.57
2022-12-31T19:01:00.786Z,7.57
2022-12-31T19:03:28.257Z,7.49
2022-12-31T19:05:54.880Z,7.45
2022-12-31T19:08:22.103Z,7.46
2022-12-31T19:10:49.608Z,7.44
2022-12-31T19:13:17.219Z,7.50
2022-12-31T19:15:43.732Z,7.47
2022-12-31T19:18:11.271Z,7.52
2022-12-31T19:20:38.576Z,7.50
2022-12-31T19:23:05.170Z,7.49
2022-12-31T19:25:33.942Z,7.46
2022-12-31T19:28:04.036Z,7.44
2022-12-31T19:30:31.600Z,7.44
2022-12-31T19:32:58.315Z,7.49
2022-12-31T19:35:25.355Z,7.51
2022-12-31T19:37:52.663Z,7.53
2022-12-31T19:40:24.092Z,7.57
2022-12-31T19:42:51.227Z,7.57
2022-12-31T19:45:19.031Z,7.63
2022-12-31T19:47:46.231Z,7.57
2022-12-31T19:50:17.755Z,7.57
2022-12-31T19:52:45.652Z,7.60
2022-12-31T19:55:13.307Z,7.50
2022-12-31T19:57:40.021Z,7.47
2022-12-31T20:00:06.933Z,7.48
2022-12-31T20:02:33.448Z,7.39
2022-12-31T20:05:00.095Z,7.29
2022-12-31T20:07:27.373Z,7.27
2022-12-31T20:09:53.996Z,7.20
2022-12-31T20:12:21.096Z,7.21
2022-12-31T20:14:47.503Z,7.16
2022-12-31T20:17:14.130Z,7.14
2022-12-31T20:19:40.622Z,7.12
2022-12-31T20:22:07.077Z,7.10
2022-12-31T20:24:33.502Z,7.13
2022-12-31T20:26:59.998Z,7.12
2022-12-31T20:29:26.557Z,7.11
2022-12-31T20:31:53.066Z,7.11
2022-12-31T20:34:19.539Z,7.10
2022-12-31T20:36:46.053Z,7.08
2022-12-31T20:39:12.696Z,7.06
2022-12-31T20:41:39.332Z,7.09
2022-12-31T20:44:05.940Z,7.14
2022-12-31T20:46:34.810Z,7.13
2022-12-31T20:49:02.593Z,7.13
2022-12-31T20:51:30.060Z,7.08
2022-12-31T20:53:58.578Z,7.09
2022-12-31T20:56:25.522Z,7.05
2022-12-31T20:58:52.005Z,7.05
2022-12-31T21:01:18.693Z,7.10
2022-12-31T21:06:33.544Z,7.08
2022-12-31T21:09:00.715Z,7.10
2022-12-31T21:11:45.873Z,7.04
2022-12-31T21:14:12.348Z,7.08
2022-12-31T21:16:38.851Z,7.03
2022-12-31T21:19:05.662Z,7.02
2022-12-31T21:21:32.203Z,7.09
2022-12-31T21:23:58.919Z,7.03
2022-12-31T21:26:25.427Z,7.06
2022-12-31T21:28:52.744Z,7.06
2022-12-31T21:31:19.320Z,7.12
2022-12-31T21:33:46.507Z,7.14
2022-12-31T21:36:13.051Z,7.13
2022-12-31T21:38:39.668Z,7.11
2022-12-31T21:41:07.328Z,7.17
2022-12-31T21:43:33.785Z,7.20
2022-12-31T21:46:04.985Z,7.23
2022-12-31T21:48:31.798Z,7.23
2022-12-31T21:51:08.586Z,7.21
2022-12-31T21:53:37.138Z,7.21
2022-12-31T21:56:09.937Z,7.23
2022-12-31T21:58:37.580Z,7.26
2022-12-31T22:01:23.132Z,7.31
2022-12-31T22:03:50.050Z,7.25
2022-12-31T22:06:21.116Z,7.26
2022-12-31T22:08:49.307Z,7.28
2022-12-31T22:11:16.831Z,7.27
2022-12-31T22:13:43.358Z,7.34
2022-12-31T22:16:09.877Z,7.34
2022-12-31T22:18:39.088Z,7.34
2022-12-31T22:21:17.868Z,7.39
2022-12-31T22:23:46.867Z,7.37
2022-12-31T22:26:22.693Z,7.33
2022-12-31T22:28:50.162Z,7.31
2022-12-31T22:31:26.483Z,7.31
2022-12-31T22:33:53.242Z,7.31
2022-12-31T22:36:23.105Z,7.33
2022-12-31T22:38:50.923Z,7.33
2022-12-31T22:41:18.846Z,7.35
2022-12-31T22:43:46.709Z,7.34
2022-12-31T22:46:14.457Z,7.31
2022-12-31T22:48:41.993Z,7.22
2022-12-31T22:51:08.861Z,7.16
2022-12-31T22:53:35.931Z,7.15
2022-12-31T22:56:03.063Z,7.11
2022-12-31T22:58:29.875Z,7.05
2022-12-31T23:00:56.378Z,7.02
2022-12-31T23:03:25.144Z,7.02
2022-12-31T23:05:52.489Z,7.03
2022-12-31T23:08:23.307Z,7.06
2022-12-31T23:11:00.382Z,7.01
2022-12-31T23:13:51.150Z,7.00
2022-12-31T23:16:37.266Z,7.01
2022-12-31T23:19:23.452Z,7.01
2022-12-31T23:22:08.611Z,6.98
2022-12-31T23:24:35.149Z,6.99
2022-12-31T23:27:01.678Z,6.99
2022-12-31T23:29:28.143Z,6.97
2022-12-31T23:31:56.076Z,6.89
2022-12-31T23:34:22.648Z,6.82
2022-12-31T23:36:49.153Z,6.74
2022-12-31T23:39:16.940Z,6.71
2022-12-31T23:41:43.420Z,6.63
2022-12-31T23:44:11.994Z,6.60
2022-12-31T23:46:38.803Z,6.56
2022-12-31T23:49:05.406Z,6.52
2022-12-31T23:51:31.925Z,6.46
2022-12-31T23:53:58.533Z,6.42
2022-12-31T23:56:25.020Z,6.37
2022-12-31T23:58:55.401Z,6.35
